createdAt,value
2022-08-05T00:02:52.091Z,48
2022-08-05T00:22:12.112Z,48
2022-08-05T00:42:32.571Z,48
2022-08-05T01:01:49.588Z,49
2022-08-05T01:21:50.892Z,48
2022-08-05T01:41:48.656Z,49
2022-08-05T02:01:49.311Z,49
2022-08-05T02:22:26.836Z,49
2022-08-05T02:42:27.754Z,49
2022-08-05T03:21:50.200Z,50
2022-08-05T03:41:52.853Z,50
2022-08-05T04:41:51.562Z,56
2022-08-05T05:21:55.876Z,58
2022-08-05T07:42:34.245Z,58
2022-08-05T08:22:48.692Z,55
2022-08-05T08:41:58.902Z,55
2022-08-05T09:02:28.760Z,54
2022-08-05T09:41:56.490Z,53
2022-08-05T10:01:58.561Z,47
2022-08-05T12:42:15.379Z,47
2022-08-05T13:03:23.242Z,46
2022-08-05T13:42:06.039Z,45
2022-08-05T14:02:33.431Z,42
2022-08-05T14:22:34.712Z,42
2022-08-05T14:42:29.325Z,42
2022-08-05T15:02:25.207Z,41
2022-08-05T15:21:49.102Z,41
2022-08-05T15:43:21.536Z,42
2022-08-05T16:03:15.026Z,42
2022-08-05T16:22:15.599Z,42
2022-08-05T16:42:19.516Z,44
2022-08-05T17:02:14.863Z,45
2022-08-05T17:22:34.029Z,45
2022-08-05T17:42:22.834Z,48
2022-08-05T17:55:49.093Z,47
2022-08-05T18:02:23.614Z,48
2022-08-05T18:22:18.229Z,48
2022-08-05T18:43:48.528Z,49
2022-08-05T19:02:55.879Z,50
2022-08-05T19:22:27.983Z,52
2022-08-05T19:42:08.218Z,52
2022-08-05T20:02:55.216Z,55
2022-08-05T20:21:49.984Z,53
2022-08-05T20:41:48.955Z,56
2022-08-05T21:02:30.169Z,58
2022-08-05T21:21:51.331Z,56
2022-08-05T21:42:02.199Z,57
2022-08-05T22:02:27.192Z,59
2022-08-05T22:42:26.079Z,56
2022-08-05T23:02:11.335Z,55
2022-08-05T23:22:36.313Z,56
